Time;durP1;ratioP1;P1;durP2;ratioP2;P2;SDS_P1;SDS_P2;PMS_P1;PMS_P2;Temp;Humidity;BMP_temperature;BMP_pressure;BME280_temperature;BME280_humidity;BME280_pressure;Samples;Min_cycle;Max_cycle;Signal;HPM_P1;HPM_P2
2022/07/31 00:02:06;;;;;;;2.45;1.33;;;21.70;99.90;;;;;;5027801;28;20046;-83
2022/07/31 00:04:33;;;;;;;3.08;1.23;;;21.50;99.90;;;;;;5030422;28;20049;-83
2022/07/31 00:07:00;;;;;;;3.97;1.38;;;21.70;99.90;;;;;;5028261;28;20758;-83
2022/07/31 00:09:28;;;;;;;4.32;1.75;;;21.70;99.90;;;;;;5029469;28;20503;-82
2022/07/31 00:12:16;;;;;;;12.57;1.80;;;22.10;99.90;;;;;;5025883;28;20080;-83
2022/07/31 00:14:43;;;;;;;5.80;1.80;;;21.60;99.90;;;;;;5029997;28;20056;-83
2022/07/31 00:17:09;;;;;;;2.60;1.30;;;21.60;99.90;;;;;;5030670;28;20070;-83
2022/07/31 00:19:36;;;;;;;1.35;1.20;;;21.60;99.90;;;;;;5028508;28;20049;-83
2022/07/31 00:22:03;;;;;;;3.25;1.42;;;22.00;99.90;;;;;;5031371;28;20562;-83
2022/07/31 00:24:30;;;;;;;3.58;1.40;;;21.70;99.90;;;;;;5028573;28;20084;-83
2022/07/31 00:26:57;;;;;;;2.75;1.40;;;21.50;99.90;;;;;;5030220;28;20049;-83
2022/07/31 00:29:24;;;;;;;6.15;1.90;;;21.90;99.90;;;;;;5027926;28;20102;-83
2022/07/31 00:31:50;;;;;;;5.57;1.83;;;21.40;99.90;;;;;;5029647;28;20077;-83
2022/07/31 00:34:17;;;;;;;1.70;1.30;;;21.40;99.90;;;;;;5031576;28;20059;-82
2022/07/31 00:36:44;;;;;;;2.70;1.40;;;21.40;99.90;;;;;;5029621;28;20125;-82
2022/07/31 00:39:10;;;;;;;1.35;1.23;;;21.70;99.90;;;;;;5029392;28;20474;-82
2022/07/31 00:41:42;;;;;;;2.50;1.33;;;21.40;99.90;;;;;;5027945;28;20089;-83
2022/07/31 00:44:10;;;;;;;2.85;1.27;;;21.40;99.90;;;;;;5028451;28;20081;-83
2022/07/31 00:46:38;;;;;;;4.60;1.30;;;21.50;99.90;;;;;;5030688;28;20046;-83
2022/07/31 00:49:08;;;;;;;5.60;1.40;;;21.40;99.90;;;;;;5024151;28;20480;-83
2022/07/31 00:51:36;;;;;;;1.33;1.23;;;21.30;99.90;;;;;;5028862;28;20103;-83
2022/07/31 00:54:04;;;;;;;1.55;1.20;;;21.30;99.90;;;;;;5032829;28;20082;-82
2022/07/31 00:56:31;;;;;;;2.55;1.40;;;21.20;99.90;;;;;;5032502;28;20695;-82
2022/07/31 00:58:57;;;;;;;5.95;1.45;;;21.30;99.90;;;;;;5029973;28;20046;-82
2022/07/31 01:01:24;;;;;;;3.25;1.65;;;21.50;99.90;;;;;;5027865;28;20064;-83
2022/07/31 01:03:52;;;;;;;2.33;1.20;;;21.30;99.90;;;;;;5028397;28;20049;-83
2022/07/31 01:06:19;;;;;;;3.13;1.60;;;21.20;99.90;;;;;;5029043;28;20050;-83
2022/07/31 01:08:46;;;;;;;3.63;1.70;;;21.20;99.90;;;;;;5027924;28;20129;-83
2022/07/31 01:11:18;;;;;;;5.65;1.33;;;21.20;99.90;;;;;;5030057;28;20084;-82
2022/07/31 01:13:51;;;;;;;3.30;1.33;;;21.10;99.90;;;;;;5025433;28;20088;-83
2022/07/31 01:16:20;;;;;;;3.85;1.30;;;21.10;99.90;;;;;;5028509;28;20420;-82
2022/07/31 01:18:48;;;;;;;6.07;1.10;;;20.80;99.90;;;;;;5030395;28;20073;-83
2022/07/31 01:21:24;;;;;;;3.70;1.38;;;21.10;99.90;;;;;;5023011;28;20076;-83
2022/07/31 01:24:22;;;;;;;3.00;1.10;;;21.10;99.90;;;;;;5028374;28;20050;-82
2022/07/31 01:26:59;;;;;;;4.95;1.13;;;21.10;99.90;;;;;;5028727;28;20141;-83
2022/07/31 01:29:34;;;;;;;4.63;1.17;;;21.00;99.90;;;;;;5025653;28;20050;-83
2022/07/31 01:32:09;;;;;;;3.10;1.30;;;21.00;99.90;;;;;;5011039;28;20053;-83
2022/07/31 01:34:47;;;;;;;4.75;1.45;;;21.00;99.90;;;;;;5021798;28;20081;-83
2022/07/31 01:37:48;;;;;;;2.20;1.40;;;20.50;99.90;;;;;;5026986;28;20069;-82
2022/07/31 01:40:20;;;;;;;;;;;21.00;99.90;;;;;;5023562;28;20060;-82
2022/07/31 01:42:55;;;;;;;2.42;0.88;;;21.00;99.90;;;;;;5028211;28;19922;-82
2022/07/31 01:45:25;;;;;;;1.10;1.00;;;20.90;99.90;;;;;;5023308;28;20076;-83
2022/07/31 01:47:53;;;;;;;1.73;1.02;;;20.90;99.90;;;;;;5030240;28;20072;-83
2022/07/31 01:50:21;;;;;;;1.63;1.30;;;20.90;99.90;;;;;;5033724;28;20053;-82
2022/07/31 01:53:11;;;;;;;2.28;1.33;;;20.90;99.90;;;;;;5026429;28;20053;-83
2022/07/31 01:55:41;;;;;;;5.25;1.30;;;21.00;99.90;;;;;;5026657;28;20126;-82
2022/07/31 01:58:33;;;;;;;2.95;1.45;;;20.70;99.90;;;;;;5028556;28;20403;-83
2022/07/31 02:01:02;;;;;;;1.67;1.10;;;20.80;99.90;;;;;;5011155;28;20050;-83
2022/07/31 02:03:31;;;;;;;3.58;1.40;;;20.80;99.90;;;;;;5032204;28;20069;-83
2022/07/31 02:06:13;;;;;;;5.57;1.30;;;20.70;99.90;;;;;;5026596;28;20049;-83
2022/07/31 02:08:45;;;;;;;2.95;1.20;;;20.70;99.90;;;;;;5032634;28;20091;-82
2022/07/31 02:11:14;;;;;;;3.67;1.50;;;20.60;99.90;;;;;;5033625;28;20518;-83
2022/07/31 02:13:43;;;;;;;5.53;1.75;;;20.60;99.90;;;;;;5028513;28;20049;-82
2022/07/31 02:16:11;;;;;;;3.90;1.27;;;20.70;99.90;;;;;;5033459;28;20077;-82
2022/07/31 02:18:38;;;;;;;2.10;1.27;;;21.30;99.90;;;;;;5030578;28;20049;-83
2022/07/31 02:21:06;;;;;;;3.15;1.35;;;20.70;99.90;;;;;;5032396;28;20136;-83
2022/07/31 02:23:34;;;;;;;2.30;1.20;;;20.70;99.90;;;;;;5033949;28;20053;-82
2022/07/31 02:26:02;;;;;;;3.10;1.27;;;20.70;99.90;;;;;;5030153;28;20141;-82
2022/07/31 02:28:31;;;;;;;1.98;1.10;;;20.60;99.90;;;;;;5033184;28;20049;-82
2022/07/31 02:31:00;;;;;;;2.15;1.10;;;20.60;99.90;;;;;;5032075;28;20112;-82
2022/07/31 02:33:27;;;;;;;2.30;1.02;;;21.30;99.90;;;;;;5031391;28;20388;-83
2022/07/31 02:35:57;;;;;;;3.58;1.27;;;20.40;99.90;;;;;;5033776;28;20051;-83
2022/07/31 02:38:26;;;;;;;5.07;1.20;;;20.90;99.90;;;;;;5027458;28;20057;-82
2022/07/31 02:40:58;;;;;;;4.90;1.30;;;20.90;99.90;;;;;;5031870;28;20147;-82
2022/07/31 02:43:26;;;;;;;4.28;1.13;;;20.50;99.90;;;;;;5033340;28;20084;-82
2022/07/31 02:45:55;;;;;;;2.88;1.38;;;20.60;99.90;;;;;;5035116;28;20136;-82
2022/07/31 02:48:23;;;;;;;1.75;1.20;;;20.60;99.90;;;;;;5031984;28;20075;-82
2022/07/31 02:50:51;;;;;;;2.33;1.20;;;20.60;99.90;;;;;;5030278;28;20069;-83
2022/07/31 02:53:18;;;;;;;2.53;1.17;;;20.50;99.90;;;;;;5031793;28;20054;-82
2022/07/31 02:55:45;;;;;;;1.95;1.27;;;20.50;99.90;;;;;;5033170;28;20084;-83
2022/07/31 02:58:13;;;;;;;1.95;1.17;;;20.50;99.90;;;;;;5030026;28;20054;-82
2022/07/31 03:00:40;;;;;;;6.32;1.70;;;20.50;99.90;;;;;;5034718;28;20059;-82
2022/07/31 03:03:07;;;;;;;3.83;1.30;;;20.50;99.90;;;;;;5034137;28;20077;-82
2022/07/31 03:05:34;;;;;;;3.70;1.30;;;20.80;99.90;;;;;;5032465;28;20053;-82
2022/07/31 03:08:00;;;;;;;7.00;1.48;;;20.50;99.90;;;;;;5033706;28;20046;-82
2022/07/31 03:10:27;;;;;;;4.90;1.30;;;20.50;99.90;;;;;;5029479;28;20145;-82
2022/07/31 03:12:54;;;;;;;6.20;1.45;;;20.50;99.90;;;;;;5025937;28;20572;-82
2022/07/31 03:15:24;;;;;;;4.22;1.10;;;20.50;99.90;;;;;;5030188;28;20093;-83
2022/07/31 03:17:52;;;;;;;4.93;1.25;;;20.50;99.90;;;;;;5031054;28;20495;-82
2022/07/31 03:20:19;;;;;;;3.08;1.30;;;20.60;99.90;;;;;;5032200;28;20092;-82
2022/07/31 03:22:47;;;;;;;2.58;1.02;;;20.60;99.90;;;;;;5028489;28;20073;-82
2022/07/31 03:25:15;;;;;;;5.40;1.50;;;20.40;99.90;;;;;;5032725;28;20148;-83
2022/07/31 03:27:49;;;;;;;2.13;1.00;;;20.60;99.90;;;;;;5030936;28;20069;-82
2022/07/31 03:30:25;;;;;;;2.78;1.10;;;20.50;99.90;;;;;;5029798;28;20049;-82
2022/07/31 03:32:53;;;;;;;2.58;1.58;;;20.50;99.90;;;;;;5032282;28;20068;-82
2022/07/31 03:35:21;;;;;;;3.10;1.63;;;20.50;99.90;;;;;;5031249;28;20073;-82
2022/07/31 03:37:48;;;;;;;2.78;1.17;;;20.50;99.90;;;;;;5029785;28;20109;-83
2022/07/31 03:40:15;;;;;;;3.15;1.30;;;20.50;99.90;;;;;;5037377;28;20049;-82
2022/07/31 03:42:43;;;;;;;5.22;1.20;;;20.50;99.90;;;;;;5026319;28;20050;-82
2022/07/31 03:45:11;;;;;;;2.95;1.40;;;20.50;99.90;;;;;;5033784;28;20059;-82
2022/07/31 03:47:38;;;;;;;1.73;1.20;;;20.50;99.90;;;;;;5041795;28;20049;-81
2022/07/31 03:50:06;;;;;;;3.28;1.30;;;20.50;99.90;;;;;;5041045;28;20065;-82
2022/07/31 03:52:34;;;;;;;1.55;1.10;;;20.50;99.90;;;;;;5038605;28;20095;-82
2022/07/31 03:55:01;;;;;;;5.63;1.30;;;20.30;99.90;;;;;;5024321;28;20076;-82
2022/07/31 03:57:29;;;;;;;3.78;1.52;;;20.40;99.90;;;;;;5028876;28;20562;-83
2022/07/31 04:00:01;;;;;;;3.88;1.45;;;20.30;99.90;;;;;;5029562;28;20049;-82
2022/07/31 04:02:28;;;;;;;4.35;1.20;;;20.30;99.90;;;;;;5027829;28;20077;-82
2022/07/31 04:04:56;;;;;;;1.95;1.13;;;20.30;99.90;;;;;;5031828;28;20049;-83
2022/07/31 04:07:23;;;;;;;2.65;1.33;;;20.30;99.90;;;;;;5028345;28;20482;-82
2022/07/31 04:09:50;;;;;;;3.13;1.10;;;20.30;99.90;;;;;;5029868;28;20101;-83
2022/07/31 04:12:16;;;;;;;2.72;1.52;;;20.20;99.90;;;;;;5029983;28;20471;-83
2022/07/31 04:14:43;;;;;;;2.85;1.40;;;20.30;99.90;;;;;;5028891;28;20073;-83
2022/07/31 04:17:10;;;;;;;3.65;1.30;;;20.30;99.90;;;;;;5032143;28;20045;-82
2022/07/31 04:19:38;;;;;;;2.05;1.30;;;20.20;99.90;;;;;;5027956;28;20104;-83
2022/07/31 04:22:05;;;;;;;1.83;1.13;;;20.20;99.90;;;;;;5029926;28;20112;-82
2022/07/31 04:24:32;;;;;;;2.45;1.40;;;20.20;99.90;;;;;;5029807;28;20141;-83
2022/07/31 04:26:59;;;;;;;1.92;1.73;;;20.20;99.90;;;;;;5030247;28;20052;-83
2022/07/31 04:29:27;;;;;;;2.42;1.42;;;20.30;99.90;;;;;;5032041;28;20052;-82
2022/07/31 04:31:54;;;;;;;3.50;1.50;;;20.30;99.90;;;;;;5026159;28;20049;-83
2022/07/31 04:34:21;;;;;;;2.72;1.58;;;20.30;99.90;;;;;;5033021;28;20041;-82
2022/07/31 04:36:48;;;;;;;2.92;1.10;;;20.30;99.90;;;;;;5039699;28;20060;-81
2022/07/31 04:39:15;;;;;;;3.10;1.50;;;20.30;99.90;;;;;;5040167;28;20415;-82
2022/07/31 04:41:41;;;;;;;2.47;1.45;;;20.30;99.90;;;;;;5034662;28;20072;-82
2022/07/31 04:44:09;;;;;;;2.28;1.45;;;20.40;99.90;;;;;;5026811;28;20077;-83
2022/07/31 04:46:36;;;;;;;2.75;1.38;;;20.40;99.90;;;;;;5029630;28;20442;-83
2022/07/31 04:49:03;;;;;;;3.85;1.58;;;20.40;99.90;;;;;;5027535;28;20069;-83
2022/07/31 04:51:30;;;;;;;4.35;1.50;;;20.40;99.90;;;;;;5028732;28;20509;-83
2022/07/31 04:53:56;;;;;;;3.45;1.27;;;20.40;99.90;;;;;;5032464;28;20045;-82
2022/07/31 04:56:32;;;;;;;1.92;1.10;;;20.40;99.90;;;;;;5030360;28;20471;-82
2022/07/31 04:59:01;;;;;;;2.33;1.27;;;20.40;99.90;;;;;;5029439;28;20085;-82
2022/07/31 05:01:28;;;;;;;2.63;1.27;;;20.50;99.90;;;;;;5029734;28;20057;-83
2022/07/31 05:03:56;;;;;;;1.85;1.00;;;20.50;99.90;;;;;;5033078;28;20057;-83
2022/07/31 05:06:32;;;;;;;4.10;1.50;;;20.50;99.90;;;;;;5028537;28;20582;-83
2022/07/31 05:08:58;;;;;;;2.47;1.20;;;20.50;99.90;;;;;;5030731;28;20073;-83
2022/07/31 05:11:25;;;;;;;1.30;1.10;;;20.60;99.90;;;;;;5031944;28;20056;-83
2022/07/31 05:13:54;;;;;;;3.15;1.10;;;20.70;99.90;;;;;;5030759;28;20077;-83
2022/07/31 05:16:21;;;;;;;1.48;1.08;;;20.80;99.90;;;;;;5033415;28;20049;-83
2022/07/31 05:18:50;;;;;;;2.15;1.00;;;20.90;99.90;;;;;;5029990;28;20077;-83
2022/07/31 05:21:17;;;;;;;5.90;1.38;;;20.90;99.90;;;;;;5033769;28;20087;-83
2022/07/31 05:23:46;;;;;;;5.07;1.30;;;21.00;99.90;;;;;;5034716;28;20053;-83
2022/07/31 05:26:14;;;;;;;1.90;1.10;;;21.10;99.90;;;;;;5031101;28;20151;-83
2022/07/31 05:28:42;;;;;;;2.63;1.35;;;21.10;99.90;;;;;;5026707;28;20072;-83
2022/07/31 05:31:12;;;;;;;2.20;1.00;;;21.20;99.90;;;;;;5036452;28;20042;-83
2022/07/31 05:33:39;;;;;;;3.78;1.58;;;21.20;99.90;;;;;;5031498;28;20069;-83
2022/07/31 05:36:06;;;;;;;1.90;1.15;;;21.30;99.90;;;;;;5032995;28;20109;-83
2022/07/31 05:38:33;;;;;;;3.75;1.55;;;21.30;99.90;;;;;;5035420;28;20084;-83
2022/07/31 05:41:00;;;;;;;1.60;1.30;;;21.40;99.90;;;;;;5031957;28;20049;-83
2022/07/31 05:43:27;;;;;;;1.50;1.20;;;21.40;99.90;;;;;;5034438;28;20049;-83
2022/07/31 05:45:54;;;;;;;2.22;1.08;;;21.40;99.90;;;;;;5034084;28;20483;-83
2022/07/31 05:48:22;;;;;;;3.03;1.27;;;21.40;99.90;;;;;;5032224;28;20042;-82
2022/07/31 05:50:49;;;;;;;3.72;1.02;;;21.40;99.90;;;;;;5033473;28;20060;-83
2022/07/31 05:53:17;;;;;;;2.90;1.30;;;21.50;99.90;;;;;;5028713;28;20500;-83
2022/07/31 05:55:45;;;;;;;6.53;1.60;;;21.40;99.90;;;;;;5033306;28;20050;-83
2022/07/31 05:58:15;;;;;;;4.43;1.10;;;21.40;99.90;;;;;;5034592;28;20051;-82
2022/07/31 06:00:44;;;;;;;6.88;1.13;;;21.50;99.90;;;;;;5031982;28;20046;-83
2022/07/31 06:03:11;;;;;;;5.15;1.45;;;21.50;99.90;;;;;;5035055;28;20140;-83
2022/07/31 06:05:39;;;;;;;3.03;1.30;;;21.50;99.90;;;;;;5032140;28;20069;-83
2022/07/31 06:08:08;;;;;;;2.35;1.80;;;21.60;99.90;;;;;;5031745;28;20124;-83
2022/07/31 06:10:36;;;;;;;2.53;1.10;;;21.60;99.90;;;;;;5033190;28;20046;-83
2022/07/31 06:13:04;;;;;;;4.30;1.30;;;21.60;99.90;;;;;;5029583;28;20511;-83
2022/07/31 06:15:31;;;;;;;3.08;1.30;;;21.70;99.90;;;;;;5026978;28;20078;-83
2022/07/31 06:18:03;;;;;;;1.23;1.13;;;21.70;99.90;;;;;;5031812;28;20086;-83
2022/07/31 06:20:29;;;;;;;3.13;1.30;;;21.70;99.90;;;;;;5034225;28;20136;-83
2022/07/31 06:22:56;;;;;;;3.67;1.42;;;21.70;99.90;;;;;;5031729;28;20085;-83
2022/07/31 06:25:25;;;;;;;2.58;1.60;;;21.80;99.90;;;;;;5039572;28;20064;-82
2022/07/31 06:28:04;;;;;;;3.75;1.55;;;21.80;99.90;;;;;;5032859;28;20050;-83
2022/07/31 06:30:36;;;;;;;4.93;1.70;;;21.80;99.90;;;;;;5030822;28;20112;-83
2022/07/31 06:33:03;;;;;;;5.45;1.67;;;21.80;99.90;;;;;;5034004;28;20060;-83
2022/07/31 06:35:34;;;;;;;3.15;2.30;;;21.90;99.90;;;;;;5032259;28;20053;-83
2022/07/31 06:38:00;;;;;;;3.90;1.48;;;21.90;99.90;;;;;;5031260;28;20173;-83
2022/07/31 06:40:27;;;;;;;3.55;1.65;;;21.90;99.90;;;;;;5032659;28;20073;-83
2022/07/31 06:42:54;;;;;;;2.53;1.90;;;22.00;99.90;;;;;;5029047;28;20049;-83
2022/07/31 06:45:21;;;;;;;4.93;1.58;;;22.00;99.90;;;;;;5032340;28;20081;-83
2022/07/31 06:48:12;;;;;;;4.65;2.40;;;22.00;99.90;;;;;;5032713;28;20132;-83
2022/07/31 06:50:39;;;;;;;4.30;1.70;;;22.00;99.90;;;;;;5029098;28;20088;-83
2022/07/31 06:53:06;;;;;;;2.47;1.45;;;22.00;99.90;;;;;;5031500;28;20072;-83
2022/07/31 06:55:32;;;;;;;5.50;2.13;;;22.00;99.90;;;;;;5030344;28;20471;-83
2022/07/31 06:57:59;;;;;;;3.25;1.38;;;22.10;99.90;;;;;;5029240;28;20053;-83
2022/07/31 07:00:26;;;;;;;5.15;1.50;;;22.20;99.90;;;;;;5031504;28;20084;-83
2022/07/31 07:02:53;;;;;;;1.48;1.35;;;22.20;99.90;;;;;;5029328;28;20542;-83
2022/07/31 07:05:20;;;;;;;2.60;1.63;;;22.20;99.90;;;;;;5031381;28;20080;-83
2022/07/31 07:07:47;;;;;;;3.47;1.30;;;22.30;99.90;;;;;;5030896;28;20090;-83
2022/07/31 07:10:14;;;;;;;2.60;1.35;;;22.30;99.90;;;;;;5029431;28;20100;-83
2022/07/31 07:12:40;;;;;;;3.75;1.33;;;22.40;99.90;;;;;;5032308;28;20507;-83
2022/07/31 07:15:09;;;;;;;1.55;1.25;;;22.40;99.90;;;;;;5024665;28;20530;-83
2022/07/31 07:17:35;;;;;;;2.38;1.48;;;22.50;99.90;;;;;;5031845;28;20431;-82
2022/07/31 07:20:03;;;;;;;2.13;1.33;;;22.50;99.90;;;;;;5035808;28;20057;-83
2022/07/31 07:22:31;;;;;;;3.75;1.30;;;22.60;99.90;;;;;;5031011;28;20136;-83
2022/07/31 07:24:59;;;;;;;4.25;1.67;;;22.60;99.90;;;;;;5032166;28;20077;-83
2022/07/31 07:27:26;;;;;;;2.70;1.55;;;22.60;99.90;;;;;;5024938;28;20053;-83
2022/07/31 07:29:53;;;;;;;1.83;1.30;;;22.70;99.90;;;;;;5031101;28;20472;-83
2022/07/31 07:32:19;;;;;;;1.30;1.10;;;22.80;99.90;;;;;;5029921;28;20050;-83
2022/07/31 07:34:46;;;;;;;2.53;1.45;;;22.80;99.90;;;;;;5028332;28;20049;-83
2022/07/31 07:37:25;;;;;;;2.00;1.17;;;22.90;99.90;;;;;;5025754;28;20050;-82
2022/07/31 07:39:52;;;;;;;2.92;1.00;;;23.00;99.90;;;;;;5030702;28;20050;-83
2022/07/31 07:42:18;;;;;;;2.00;1.17;;;23.00;99.90;;;;;;5030862;28;20054;-83
2022/07/31 07:44:45;;;;;;;3.78;1.30;;;23.10;99.90;;;;;;5028794;28;20054;-83
2022/07/31 07:47:12;;;;;;;1.95;1.20;;;23.20;99.90;;;;;;5030582;28;20061;-83
2022/07/31 07:49:39;;;;;;;2.67;1.30;;;23.30;99.90;;;;;;5024291;28;20045;-83
2022/07/31 07:52:05;;;;;;;3.60;1.30;;;23.30;99.90;;;;;;5031887;28;20084;-83
2022/07/31 07:54:32;;;;;;;2.15;1.52;;;23.40;99.90;;;;;;5029275;28;20122;-83
2022/07/31 07:57:00;;;;;;;3.35;1.33;;;23.50;99.90;;;;;;5030274;28;20117;-83
2022/07/31 07:59:26;;;;;;;2.80;1.45;;;23.60;99.90;;;;;;5031603;28;20055;-83
2022/07/31 08:01:53;;;;;;;6.57;1.25;;;23.60;99.90;;;;;;5038775;28;20057;-83
2022/07/31 08:04:20;;;;;;;3.88;1.27;;;23.70;99.90;;;;;;5037115;28;20038;-82
2022/07/31 08:06:47;;;;;;;3.38;1.20;;;23.80;99.90;;;;;;5038175;28;20056;-83
2022/07/31 08:09:13;;;;;;;2.63;1.30;;;23.90;99.90;;;;;;5029615;28;20050;-83
2022/07/31 08:11:40;;;;;;;1.65;1.52;;;23.90;99.90;;;;;;5030279;28;20041;-83
2022/07/31 08:14:07;;;;;;;2.05;1.23;;;24.00;99.90;;;;;;5033520;28;20052;-82
2022/07/31 08:16:33;;;;;;;6.80;1.17;;;24.10;99.90;;;;;;5029607;28;20106;-83
2022/07/31 08:19:00;;;;;;;2.45;1.30;;;24.10;99.90;;;;;;5029772;28;20088;-83
2022/07/31 08:21:27;;;;;;;3.28;1.20;;;24.20;99.90;;;;;;5029085;28;20134;-83
2022/07/31 08:23:54;;;;;;;5.32;1.17;;;24.20;99.90;;;;;;5027804;28;20053;-83
2022/07/31 08:26:20;;;;;;;1.77;1.13;;;24.20;99.90;;;;;;5027843;28;20065;-83
2022/07/31 08:28:48;;;;;;;1.63;1.00;;;24.30;99.90;;;;;;5026994;28;20073;-83
2022/07/31 08:31:18;;;;;;;2.70;1.23;;;24.30;99.90;;;;;;5030966;28;20491;-83
2022/07/31 08:33:45;;;;;;;3.22;1.00;;;24.40;99.90;;;;;;5028244;28;20397;-83
2022/07/31 08:36:12;;;;;;;3.13;1.38;;;24.40;99.90;;;;;;5029779;28;20073;-83
2022/07/31 08:38:38;;;;;;;1.90;1.10;;;24.50;99.90;;;;;;5030363;28;20279;-82
2022/07/31 08:41:05;;;;;;;2.45;1.00;;;24.50;99.90;;;;;;5028569;28;20050;-82
2022/07/31 08:43:32;;;;;;;3.15;1.00;;;24.60;99.90;;;;;;5030576;28;20053;-83
2022/07/31 08:46:20;;;;;;;3.55;1.13;;;24.60;99.90;;;;;;5030308;28;20049;-83
2022/07/31 08:48:52;;;;;;;3.13;1.17;;;24.70;99.90;;;;;;5023278;28;20050;-82
2022/07/31 08:51:21;;;;;;;2.40;1.02;;;24.80;99.90;;;;;;5029769;28;20104;-82
2022/07/31 08:53:50;;;;;;;2.17;0.93;;;24.80;99.90;;;;;;5028481;28;20166;-83
2022/07/31 08:56:18;;;;;;;2.55;1.00;;;24.80;99.90;;;;;;5026797;28;20073;-83
2022/07/31 08:58:45;;;;;;;2.25;1.08;;;24.90;99.90;;;;;;5020163;28;20111;-83
2022/07/31 09:01:13;;;;;;;1.42;1.17;;;24.90;99.90;;;;;;5030454;28;20085;-83
2022/07/31 09:03:40;;;;;;;1.95;1.10;;;25.00;99.90;;;;;;5029241;28;20077;-83
2022/07/31 09:06:07;;;;;;;1.95;0.90;;;25.10;99.90;;;;;;5028703;28;20054;-83
2022/07/31 09:08:35;;;;;;;3.97;1.20;;;25.10;99.90;;;;;;5032820;28;20046;-82
2022/07/31 09:11:08;;;;;;;3.60;1.13;;;25.30;99.90;;;;;;5030297;28;20129;-82
2022/07/31 09:13:36;;;;;;;2.78;1.02;;;25.40;99.90;;;;;;5030353;28;20080;-83
2022/07/31 09:16:03;;;;;;;4.13;1.20;;;25.50;99.90;;;;;;5030092;28;20072;-82
2022/07/31 09:18:31;;;;;;;1.30;1.00;;;25.70;99.90;;;;;;5028870;28;20136;-83
2022/07/31 09:21:03;;;;;;;1.70;1.10;;;25.90;99.90;;;;;;5026158;28;20045;-83
2022/07/31 09:23:33;;;;;;;2.05;1.65;;;26.10;99.90;;;;;;5031987;28;20522;-83
2022/07/31 09:26:03;;;;;;;4.07;1.00;;;26.40;99.90;;;;;;5033082;28;20045;-83
2022/07/31 09:28:44;;;;;;;2.70;1.00;;;26.60;99.90;;;;;;5029388;28;20045;-83
2022/07/31 09:31:12;;;;;;;4.45;1.00;;;26.70;99.90;;;;;;5031260;28;20155;-83
2022/07/31 09:33:42;;;;;;;3.80;1.42;;;26.80;99.90;;;;;;5037270;28;20042;-83
2022/07/31 09:36:12;;;;;;;2.45;1.23;;;27.00;99.90;;;;;;5031255;28;20062;-83
2022/07/31 09:38:42;;;;;;;1.92;1.25;;;27.30;99.90;;;;;;5032016;28;20050;-83
2022/07/31 09:41:13;;;;;;;5.00;1.20;;;27.50;99.90;;;;;;5032671;28;20486;-83
2022/07/31 09:44:02;;;;;;;2.30;1.10;;;27.70;99.90;;;;;;5035166;28;20117;-83
2022/07/31 09:46:44;;;;;;;3.00;1.10;;;28.00;99.90;;;;;;5029193;28;20049;-83
2022/07/31 09:49:11;;;;;;;3.80;1.15;;;28.20;99.90;;;;;;5029011;28;20491;-83
2022/07/31 09:51:43;;;;;;;5.18;1.30;;;28.30;99.90;;;;;;5034024;28;20041;-83
2022/07/31 09:54:21;;;;;;;7.68;1.15;;;28.40;99.90;;;;;;5031002;28;20077;-83
2022/07/31 09:56:48;;;;;;;2.10;1.15;;;28.50;99.90;;;;;;5032143;28;20088;-83
2022/07/31 09:59:16;;;;;;;2.88;1.08;;;28.60;99.90;;;;;;5039101;28;20050;-84
2022/07/31 10:01:47;;;;;;;3.58;1.00;;;28.60;99.90;;;;;;5032245;28;20056;-84
2022/07/31 10:04:18;;;;;;;1.48;1.10;;;28.60;99.90;;;;;;5031479;28;20438;-83
2022/07/31 10:06:50;;;;;;;2.03;1.00;;;28.70;99.90;;;;;;5033590;28;20052;-83
2022/07/31 10:09:19;;;;;;;2.10;1.20;;;28.70;99.90;;;;;;5027260;28;20058;-83
2022/07/31 10:11:48;;;;;;;3.05;1.10;;;28.70;99.90;;;;;;5030351;28;20132;-83
2022/07/31 10:14:27;;;;;;;2.17;1.10;;;28.70;99.90;;;;;;5030278;28;20061;-83
2022/07/31 10:16:59;;;;;;;6.10;0.98;;;28.70;99.90;;;;;;5027057;28;20078;-83
2022/07/31 10:19:31;;;;;;;2.33;1.10;;;28.70;99.90;;;;;;5028068;28;20061;-83
2022/07/31 10:22:02;;;;;;;2.58;1.38;;;28.70;99.90;;;;;;5032966;28;20509;-83
2022/07/31 10:24:37;;;;;;;2.28;1.00;;;28.70;99.90;;;;;;5031366;28;20046;-83
2022/07/31 10:27:04;;;;;;;8.95;1.35;;;28.60;99.90;;;;;;5032699;28;20101;-83
2022/07/31 10:29:35;;;;;;;4.60;1.15;;;28.60;99.90;;;;;;5028748;28;20042;-83
2022/07/31 10:32:02;;;;;;;1.90;0.95;;;28.60;99.90;;;;;;5034490;28;20077;-83
2022/07/31 10:34:31;;;;;;;3.00;1.30;;;28.60;99.90;;;;;;5032629;28;20046;-83
2022/07/31 10:37:17;;;;;;;6.93;1.45;;;28.50;99.90;;;;;;5030142;28;20073;-83
2022/07/31 10:40:07;;;;;;;3.45;1.20;;;28.50;99.90;;;;;;5031697;28;20066;-84
2022/07/31 10:42:45;;;;;;;1.45;1.00;;;28.50;99.90;;;;;;5030630;28;20152;-83
2022/07/31 10:45:13;;;;;;;2.53;1.10;;;28.50;99.90;;;;;;5010787;28;20114;-83
2022/07/31 10:47:40;;;;;;;1.77;0.90;;;28.50;99.90;;;;;;5032014;28;20546;-83
2022/07/31 10:50:25;;;;;;;2.25;1.20;;;28.50;99.90;;;;;;5031998;28;20475;-83
2022/07/31 10:52:52;;;;;;;2.47;1.17;;;28.50;99.90;;;;;;5027823;28;20046;-83
2022/07/31 10:55:26;;;;;;;3.50;1.10;;;28.50;99.90;;;;;;5029020;28;20081;-83
2022/07/31 10:57:53;;;;;;;3.65;1.10;;;28.50;99.90;;;;;;5031712;28;20049;-83
2022/07/31 11:00:26;;;;;;;2.00;1.30;;;28.50;99.90;;;;;;5025601;28;20054;-83
2022/07/31 11:02:56;;;;;;;2.25;1.17;;;28.50;99.90;;;;;;5030842;28;20103;-83
2022/07/31 11:05:24;;;;;;;2.65;1.10;;;28.40;99.90;;;;;;5032433;28;20080;-83
2022/07/31 11:08:03;;;;;;;3.22;0.82;;;28.30;99.90;;;;;;5025687;28;20077;-82
2022/07/31 11:10:30;;;;;;;4.13;0.93;;;28.20;99.90;;;;;;5029322;28;20076;-83
2022/07/31 11:13:07;;;;;;;2.97;0.90;;;28.10;99.90;;;;;;5033074;28;20129;-82
2022/07/31 11:15:36;;;;;;;1.23;1.00;;;28.00;99.90;;;;;;5026668;28;20053;-83
2022/07/31 11:18:12;;;;;;;3.27;1.03;;;28.00;99.90;;;;;;5030810;28;20061;-82
2022/07/31 11:21:06;;;;;;;5.60;1.45;;;28.00;99.90;;;;;;5028222;28;20050;-83
2022/07/31 11:23:53;;;;;;;4.35;1.20;;;28.10;99.90;;;;;;5031478;28;20045;-82
2022/07/31 11:26:29;;;;;;;3.70;1.50;;;28.20;99.90;;;;;;5026529;28;20046;-82
2022/07/31 11:29:07;;;;;;;2.00;1.30;;;28.20;99.90;;;;;;5031458;28;20072;-82
2022/07/31 11:31:53;;;;;;;2.25;0.90;;;28.30;99.90;;;;;;5029577;28;20049;-81
2022/07/31 11:34:20;;;;;;;1.88;0.85;;;28.40;99.90;;;;;;5025595;28;20084;-81
2022/07/31 11:36:47;;;;;;;4.13;1.20;;;28.40;99.90;;;;;;5028052;28;20056;-81
2022/07/31 11:39:30;;;;;;;2.38;1.27;;;28.50;99.90;;;;;;5030939;28;20056;-82
2022/07/31 11:42:03;;;;;;;3.67;1.17;;;28.60;99.90;;;;;;5023928;28;20138;-82
2022/07/31 11:44:33;;;;;;;3.17;1.13;;;28.70;99.90;;;;;;5026858;28;20053;-82
2022/07/31 11:46:59;;;;;;;2.97;1.15;;;28.80;99.90;;;;;;5029872;28;20085;-82
2022/07/31 11:49:27;;;;;;;2.15;1.10;;;28.90;99.90;;;;;;5028051;28;20042;-82
2022/07/31 11:52:14;;;;;;;3.50;1.35;;;29.10;99.90;;;;;;5030704;28;20136;-82
2022/07/31 11:55:09;;;;;;;4.32;0.93;;;29.30;99.90;;;;;;5031895;28;20077;-82
2022/07/31 11:57:36;;;;;;;2.10;0.90;;;29.40;99.90;;;;;;5028036;28;20511;-82
2022/07/31 12:00:20;;;;;;;3.22;1.00;;;29.60;99.90;;;;;;5029730;28;20050;-82
2022/07/31 12:02:56;;;;;;;2.22;1.02;;;29.70;99.90;;;;;;5034159;28;20106;-81
2022/07/31 12:05:23;;;;;;;2.70;1.35;;;29.70;99.90;;;;;;5038893;28;20042;-81
2022/07/31 12:08:06;;;;;;;4.93;1.48;;;29.70;99.90;;;;;;5035799;28;20506;-81
2022/07/31 12:10:33;;;;;;;1.45;1.15;;;29.70;99.90;;;;;;5038588;28;20128;-82
2022/07/31 12:13:01;;;;;;;2.35;1.02;;;29.60;99.90;;;;;;5039749;28;20088;-82
2022/07/31 12:15:28;;;;;;;8.02;1.10;;;29.50;99.90;;;;;;5036474;28;20104;-81
2022/07/31 12:18:02;;;;;;;2.55;1.48;;;29.40;99.90;;;;;;5035362;28;20081;-82
2022/07/31 12:20:33;;;;;;;3.72;1.10;;;29.40;99.90;;;;;;5039577;28;20080;-81
2022/07/31 12:23:04;;;;;;;2.20;1.17;;;29.30;99.90;;;;;;5040802;28;20049;-81
2022/07/31 12:25:44;;;;;;;4.07;1.30;;;29.40;99.90;;;;;;5030855;28;20100;-81
2022/07/31 12:28:13;;;;;;;3.70;1.10;;;29.40;99.90;;;;;;5028969;28;20102;-81
2022/07/31 12:30:41;;;;;;;2.30;1.30;;;29.40;99.90;;;;;;5025368;28;20050;-82
2022/07/31 12:33:09;;;;;;;3.35;1.20;;;29.50;99.90;;;;;;5030941;28;20363;-81
2022/07/31 12:35:41;;;;;;;4.30;2.05;;;29.50;99.90;;;;;;5030169;28;20057;-83
2022/07/31 12:38:25;;;;;;;4.43;1.20;;;29.40;99.90;;;;;;5027174;28;20053;-81
2022/07/31 12:41:12;;;;;;;;;;;29.40;99.90;;;;;;5026924;28;20056;-82
2022/07/31 12:43:39;;;;;;;1.10;1.00;;;29.40;99.90;;;;;;5028283;28;19976;-82
2022/07/31 12:46:21;;;;;;;3.25;1.00;;;29.30;99.90;;;;;;5024758;28;20519;-82
2022/07/31 12:48:48;;;;;;;2.22;1.10;;;29.20;99.90;;;;;;5030119;28;20057;-81
2022/07/31 12:51:18;;;;;;;2.97;1.00;;;29.20;99.90;;;;;;5028432;28;20116;-81
2022/07/31 12:53:46;;;;;;;2.78;1.27;;;29.20;99.90;;;;;;5027625;28;20050;-82
2022/07/31 12:56:13;;;;;;;2.80;1.00;;;29.20;99.90;;;;;;5018619;28;20411;-81
2022/07/31 12:58:40;;;;;;;3.28;1.30;;;29.20;99.90;;;;;;5023684;28;20089;-82
2022/07/31 13:01:06;;;;;;;5.07;1.67;;;29.20;99.90;;;;;;5022890;28;20058;-81
2022/07/31 13:03:33;;;;;;;3.45;1.17;;;29.30;99.90;;;;;;5022801;28;20128;-81